sensor_id;sensor_type;location;lat;lon;timestamp;P1;durP1;ratioP1;P2;durP2;ratioP2
43160;SDS011;40968;52.342;5.528;2022-12-18T00:02:05;116.53;;;32.42;;
43160;SDS011;40968;52.342;5.528;2022-12-18T00:04:36;121.35;;;33.20;;
43160;SDS011;40968;52.342;5.528;2022-12-18T00:07:03;135.23;;;34.08;;
43160;SDS011;40968;52.342;5.528;2022-12-18T00:09:29;115.18;;;31.40;;
43160;SDS011;40968;52.342;5.528;2022-12-18T00:11:57;136.32;;;36.05;;
43160;SDS011;40968;52.342;5.528;2022-12-18T00:14:24;116.28;;;32.00;;
43160;SDS011;40968;52.342;5.528;2022-12-18T00:16:51;129.75;;;33.95;;
43160;SDS011;40968;52.342;5.528;2022-12-18T00:19:17;123.22;;;31.35;;
43160;SDS011;40968;52.342;5.528;2022-12-18T00:21:44;125.95;;;32.42;;
43160;SDS011;40968;52.342;5.528;2022-12-18T00:24:11;137.45;;;32.45;;
43160;SDS011;40968;52.342;5.528;2022-12-18T00:26:38;126.00;;;33.25;;
43160;SDS011;40968;52.342;5.528;2022-12-18T00:29:08;119.28;;;34.65;;
43160;SDS011;40968;52.342;5.528;2022-12-18T00:31:38;124.80;;;34.13;;
43160;SDS011;40968;52.342;5.528;2022-12-18T00:34:06;148.10;;;35.67;;
43160;SDS011;40968;52.342;5.528;2022-12-18T00:36:33;132.68;;;37.10;;
43160;SDS011;40968;52.342;5.528;2022-12-18T00:39:01;131.13;;;36.92;;
43160;SDS011;40968;52.342;5.528;2022-12-18T00:41:30;156.73;;;40.40;;
43160;SDS011;40968;52.342;5.528;2022-12-18T00:44:16;129.65;;;36.63;;
43160;SDS011;40968;52.342;5.528;2022-12-18T00:46:43;128.70;;;37.67;;
43160;SDS011;40968;52.342;5.528;2022-12-18T00:49:13;134.55;;;36.15;;
43160;SDS011;40968;52.342;5.528;2022-12-18T00:51:40;126.43;;;30.48;;
43160;SDS011;40968;52.342;5.528;2022-12-18T00:54:07;118.85;;;31.23;;
43160;SDS011;40968;52.342;5.528;2022-12-18T00:56:34;104.65;;;31.33;;
43160;SDS011;40968;52.342;5.528;2022-12-18T00:59:02;120.28;;;32.58;;
43160;SDS011;40968;52.342;5.528;2022-12-18T01:01:30;132.68;;;34.85;;
43160;SDS011;40968;52.342;5.528;2022-12-18T01:03:57;126.18;;;36.03;;
43160;SDS011;40968;52.342;5.528;2022-12-18T01:06:25;121.78;;;33.45;;
43160;SDS011;40968;52.342;5.528;2022-12-18T01:08:51;117.22;;;34.05;;
43160;SDS011;40968;52.342;5.528;2022-12-18T01:11:19;118.00;;;32.95;;
43160;SDS011;40968;52.342;5.528;2022-12-18T01:13:46;118.03;;;32.90;;
43160;SDS011;40968;52.342;5.528;2022-12-18T01:16:13;116.03;;;32.80;;
43160;SDS011;40968;52.342;5.528;2022-12-18T01:18:42;126.10;;;36.92;;
43160;SDS011;40968;52.342;5.528;2022-12-18T01:21:09;122.80;;;34.72;;
43160;SDS011;40968;52.342;5.528;2022-12-18T01:23:37;128.15;;;33.70;;
43160;SDS011;40968;52.342;5.528;2022-12-18T01:26:05;120.50;;;34.75;;
43160;SDS011;40968;52.342;5.528;2022-12-18T01:28:32;125.43;;;36.35;;
43160;SDS011;40968;52.342;5.528;2022-12-18T01:31:08;133.05;;;32.70;;
43160;SDS011;40968;52.342;5.528;2022-12-18T01:33:39;129.57;;;33.20;;
43160;SDS011;40968;52.342;5.528;2022-12-18T01:36:08;119.88;;;31.95;;
43160;SDS011;40968;52.342;5.528;2022-12-18T01:38:40;130.25;;;34.58;;
43160;SDS011;40968;52.342;5.528;2022-12-18T01:41:07;125.72;;;33.40;;
43160;SDS011;40968;52.342;5.528;2022-12-18T01:43:45;136.45;;;34.25;;
43160;SDS011;40968;52.342;5.528;2022-12-18T01:46:15;124.53;;;33.13;;
43160;SDS011;40968;52.342;5.528;2022-12-18T01:48:42;126.68;;;35.85;;
43160;SDS011;40968;52.342;5.528;2022-12-18T01:51:12;149.23;;;34.80;;
43160;SDS011;40968;52.342;5.528;2022-12-18T01:53:40;148.82;;;34.92;;
43160;SDS011;40968;52.342;5.528;2022-12-18T01:56:08;135.40;;;34.03;;
43160;SDS011;40968;52.342;5.528;2022-12-18T01:58:40;125.88;;;36.08;;
43160;SDS011;40968;52.342;5.528;2022-12-18T02:01:12;131.95;;;34.13;;
43160;SDS011;40968;52.342;5.528;2022-12-18T02:03:40;136.70;;;35.80;;
43160;SDS011;40968;52.342;5.528;2022-12-18T02:06:09;125.00;;;32.38;;
43160;SDS011;40968;52.342;5.528;2022-12-18T02:08:44;132.75;;;36.17;;
43160;SDS011;40968;52.342;5.528;2022-12-18T02:11:18;137.70;;;36.40;;
43160;SDS011;40968;52.342;5.528;2022-12-18T02:13:56;142.00;;;37.33;;
43160;SDS011;40968;52.342;5.528;2022-12-18T02:16:33;149.05;;;36.13;;
43160;SDS011;40968;52.342;5.528;2022-12-18T02:19:06;150.68;;;36.97;;
43160;SDS011;40968;52.342;5.528;2022-12-18T02:21:44;125.85;;;33.30;;
43160;SDS011;40968;52.342;5.528;2022-12-18T02:24:23;131.52;;;35.00;;
43160;SDS011;40968;52.342;5.528;2022-12-18T02:26:59;130.32;;;35.42;;
43160;SDS011;40968;52.342;5.528;2022-12-18T02:29:29;125.00;;;34.45;;
43160;SDS011;40968;52.342;5.528;2022-12-18T02:32:01;129.05;;;36.60;;
43160;SDS011;40968;52.342;5.528;2022-12-18T02:34:32;137.10;;;31.92;;
43160;SDS011;40968;52.342;5.528;2022-12-18T02:37:01;107.20;;;29.58;;
43160;SDS011;40968;52.342;5.528;2022-12-18T02:39:30;136.50;;;32.45;;
43160;SDS011;40968;52.342;5.528;2022-12-18T02:42:00;112.47;;;32.45;;
43160;SDS011;40968;52.342;5.528;2022-12-18T02:44:32;152.25;;;33.85;;
43160;SDS011;40968;52.342;5.528;2022-12-18T02:46:59;117.45;;;31.02;;
43160;SDS011;40968;52.342;5.528;2022-12-18T02:49:29;110.22;;;33.00;;
43160;SDS011;40968;52.342;5.528;2022-12-18T02:52:02;128.70;;;32.40;;
43160;SDS011;40968;52.342;5.528;2022-12-18T02:54:36;118.25;;;30.83;;
43160;SDS011;40968;52.342;5.528;2022-12-18T02:57:20;115.78;;;30.67;;
43160;SDS011;40968;52.342;5.528;2022-12-18T02:59:57;91.10;;;28.20;;
43160;SDS011;40968;52.342;5.528;2022-12-18T03:02:29;137.32;;;33.50;;
43160;SDS011;40968;52.342;5.528;2022-12-18T03:05:01;102.28;;;31.42;;
43160;SDS011;40968;52.342;5.528;2022-12-18T03:07:35;113.47;;;29.77;;
43160;SDS011;40968;52.342;5.528;2022-12-18T03:10:07;108.00;;;30.40;;
43160;SDS011;40968;52.342;5.528;2022-12-18T03:12:40;97.57;;;27.20;;
43160;SDS011;40968;52.342;5.528;2022-12-18T03:15:12;122.78;;;30.63;;
43160;SDS011;40968;52.342;5.528;2022-12-18T03:17:46;100.82;;;31.30;;
43160;SDS011;40968;52.342;5.528;2022-12-18T03:20:22;90.03;;;27.63;;
43160;SDS011;40968;52.342;5.528;2022-12-18T03:22:53;111.15;;;28.48;;
43160;SDS011;40968;52.342;5.528;2022-12-18T03:25:23;105.38;;;30.35;;
43160;SDS011;40968;52.342;5.528;2022-12-18T03:27:55;109.13;;;29.90;;
43160;SDS011;40968;52.342;5.528;2022-12-18T03:30:25;106.40;;;28.75;;
43160;SDS011;40968;52.342;5.528;2022-12-18T03:32:56;99.65;;;27.63;;
43160;SDS011;40968;52.342;5.528;2022-12-18T03:35:29;106.22;;;30.80;;
43160;SDS011;40968;52.342;5.528;2022-12-18T03:38:00;89.13;;;26.95;;
43160;SDS011;40968;52.342;5.528;2022-12-18T03:40:28;90.55;;;26.60;;
43160;SDS011;40968;52.342;5.528;2022-12-18T03:43:03;94.85;;;27.35;;
43160;SDS011;40968;52.342;5.528;2022-12-18T03:45:37;107.13;;;28.05;;
43160;SDS011;40968;52.342;5.528;2022-12-18T03:48:08;93.65;;;24.75;;
43160;SDS011;40968;52.342;5.528;2022-12-18T03:50:44;114.03;;;30.10;;
43160;SDS011;40968;52.342;5.528;2022-12-18T03:53:18;84.05;;;26.83;;
43160;SDS011;40968;52.342;5.528;2022-12-18T03:55:55;103.90;;;27.52;;
43160;SDS011;40968;52.342;5.528;2022-12-18T03:58:25;87.00;;;26.10;;
43160;SDS011;40968;52.342;5.528;2022-12-18T04:00:53;95.47;;;25.70;;
43160;SDS011;40968;52.342;5.528;2022-12-18T04:03:22;96.15;;;26.05;;
43160;SDS011;40968;52.342;5.528;2022-12-18T04:05:50;106.60;;;25.45;;
43160;SDS011;40968;52.342;5.528;2022-12-18T04:08:18;96.10;;;27.60;;
43160;SDS011;40968;52.342;5.528;2022-12-18T04:10:47;83.85;;;23.92;;
43160;SDS011;40968;52.342;5.528;2022-12-18T04:13:21;94.60;;;28.13;;
43160;SDS011;40968;52.342;5.528;2022-12-18T04:15:49;73.72;;;24.83;;
43160;SDS011;40968;52.342;5.528;2022-12-18T04:18:16;83.30;;;24.38;;
43160;SDS011;40968;52.342;5.528;2022-12-18T04:20:42;87.47;;;23.55;;
43160;SDS011;40968;52.342;5.528;2022-12-18T04:23:09;82.80;;;23.40;;
43160;SDS011;40968;52.342;5.528;2022-12-18T04:25:36;80.13;;;23.60;;
43160;SDS011;40968;52.342;5.528;2022-12-18T04:28:02;84.40;;;23.92;;
43160;SDS011;40968;52.342;5.528;2022-12-18T04:30:29;83.90;;;23.52;;
43160;SDS011;40968;52.342;5.528;2022-12-18T04:32:57;70.63;;;23.30;;
43160;SDS011;40968;52.342;5.528;2022-12-18T04:35:24;73.43;;;22.20;;
43160;SDS011;40968;52.342;5.528;2022-12-18T04:37:51;93.80;;;24.45;;
43160;SDS011;40968;52.342;5.528;2022-12-18T04:40:17;74.07;;;22.98;;
43160;SDS011;40968;52.342;5.528;2022-12-18T04:42:44;95.70;;;25.13;;
43160;SDS011;40968;52.342;5.528;2022-12-18T04:45:11;75.15;;;23.48;;
43160;SDS011;40968;52.342;5.528;2022-12-18T04:47:37;73.80;;;21.83;;
43160;SDS011;40968;52.342;5.528;2022-12-18T04:50:06;85.05;;;22.55;;
43160;SDS011;40968;52.342;5.528;2022-12-18T04:52:33;67.53;;;21.40;;
43160;SDS011;40968;52.342;5.528;2022-12-18T04:54:59;78.68;;;22.08;;
43160;SDS011;40968;52.342;5.528;2022-12-18T04:57:26;61.80;;;22.75;;
43160;SDS011;40968;52.342;5.528;2022-12-18T04:59:52;63.75;;;20.25;;
43160;SDS011;40968;52.342;5.528;2022-12-18T05:02:19;68.63;;;20.85;;
43160;SDS011;40968;52.342;5.528;2022-12-18T05:04:46;75.32;;;21.05;;
43160;SDS011;40968;52.342;5.528;2022-12-18T05:07:14;64.88;;;22.10;;
43160;SDS011;40968;52.342;5.528;2022-12-18T05:09:40;56.85;;;19.67;;
43160;SDS011;40968;52.342;5.528;2022-12-18T05:12:07;71.68;;;21.70;;
43160;SDS011;40968;52.342;5.528;2022-12-18T05:14:34;69.75;;;19.92;;
43160;SDS011;40968;52.342;5.528;2022-12-18T05:17:00;77.35;;;20.98;;
43160;SDS011;40968;52.342;5.528;2022-12-18T05:19:27;54.63;;;18.55;;
43160;SDS011;40968;52.342;5.528;2022-12-18T05:21:54;76.70;;;19.38;;
43160;SDS011;40968;52.342;5.528;2022-12-18T05:24:22;75.40;;;19.77;;
43160;SDS011;40968;52.342;5.528;2022-12-18T05:26:48;66.55;;;18.73;;
43160;SDS011;40968;52.342;5.528;2022-12-18T05:29:15;56.85;;;17.48;;
43160;SDS011;40968;52.342;5.528;2022-12-18T05:31:42;63.20;;;18.65;;
43160;SDS011;40968;52.342;5.528;2022-12-18T05:34:08;56.53;;;17.33;;
43160;SDS011;40968;52.342;5.528;2022-12-18T05:36:35;56.85;;;19.02;;
43160;SDS011;40968;52.342;5.528;2022-12-18T05:39:02;58.38;;;18.45;;
43160;SDS011;40968;52.342;5.528;2022-12-18T05:41:30;50.00;;;16.08;;
43160;SDS011;40968;52.342;5.528;2022-12-18T05:43:56;55.13;;;16.80;;
43160;SDS011;40968;52.342;5.528;2022-12-18T05:46:24;49.25;;;16.65;;
43160;SDS011;40968;52.342;5.528;2022-12-18T05:48:51;59.35;;;17.77;;
43160;SDS011;40968;52.342;5.528;2022-12-18T05:51:19;63.85;;;17.67;;
43160;SDS011;40968;52.342;5.528;2022-12-18T05:53:47;49.58;;;16.40;;
43160;SDS011;40968;52.342;5.528;2022-12-18T05:56:15;51.65;;;15.80;;
43160;SDS011;40968;52.342;5.528;2022-12-18T05:58:45;53.80;;;16.75;;
43160;SDS011;40968;52.342;5.528;2022-12-18T06:01:14;41.10;;;15.38;;
43160;SDS011;40968;52.342;5.528;2022-12-18T06:03:43;52.28;;;16.63;;
43160;SDS011;40968;52.342;5.528;2022-12-18T06:06:13;52.10;;;16.40;;
43160;SDS011;40968;52.342;5.528;2022-12-18T06:08:41;55.55;;;16.30;;
43160;SDS011;40968;52.342;5.528;2022-12-18T06:11:08;58.88;;;17.23;;
43160;SDS011;40968;52.342;5.528;2022-12-18T06:13:34;60.03;;;16.40;;
43160;SDS011;40968;52.342;5.528;2022-12-18T06:16:03;50.15;;;15.55;;
43160;SDS011;40968;52.342;5.528;2022-12-18T06:18:30;55.15;;;16.13;;
43160;SDS011;40968;52.342;5.528;2022-12-18T06:20:57;43.13;;;15.13;;
43160;SDS011;40968;52.342;5.528;2022-12-18T06:23:24;53.25;;;15.27;;
43160;SDS011;40968;52.342;5.528;2022-12-18T06:25:51;49.30;;;17.73;;
43160;SDS011;40968;52.342;5.528;2022-12-18T06:28:18;50.75;;;15.23;;
43160;SDS011;40968;52.342;5.528;2022-12-18T06:30:45;47.70;;;15.82;;
43160;SDS011;40968;52.342;5.528;2022-12-18T06:33:15;48.75;;;15.55;;
43160;SDS011;40968;52.342;5.528;2022-12-18T06:35:41;53.70;;;15.35;;
43160;SDS011;40968;52.342;5.528;2022-12-18T06:38:08;47.85;;;15.27;;
43160;SDS011;40968;52.342;5.528;2022-12-18T06:40:36;46.42;;;15.98;;
43160;SDS011;40968;52.342;5.528;2022-12-18T06:43:03;54.03;;;15.27;;
43160;SDS011;40968;52.342;5.528;2022-12-18T06:45:30;45.47;;;15.13;;
43160;SDS011;40968;52.342;5.528;2022-12-18T06:47:57;49.28;;;14.57;;
43160;SDS011;40968;52.342;5.528;2022-12-18T06:50:25;49.72;;;15.38;;
43160;SDS011;40968;52.342;5.528;2022-12-18T06:52:51;55.60;;;15.07;;
43160;SDS011;40968;52.342;5.528;2022-12-18T06:55:18;53.08;;;15.85;;
43160;SDS011;40968;52.342;5.528;2022-12-18T06:57:45;39.10;;;14.23;;
43160;SDS011;40968;52.342;5.528;2022-12-18T07:00:12;44.03;;;14.50;;
43160;SDS011;40968;52.342;5.528;2022-12-18T07:02:39;50.78;;;14.73;;
43160;SDS011;40968;52.342;5.528;2022-12-18T07:05:06;52.42;;;15.52;;
43160;SDS011;40968;52.342;5.528;2022-12-18T07:07:35;42.42;;;14.68;;
43160;SDS011;40968;52.342;5.528;2022-12-18T07:10:02;46.20;;;15.43;;
43160;SDS011;40968;52.342;5.528;2022-12-18T07:12:29;52.55;;;15.00;;
43160;SDS011;40968;52.342;5.528;2022-12-18T07:14:55;44.13;;;13.93;;
43160;SDS011;40968;52.342;5.528;2022-12-18T07:17:22;43.28;;;14.35;;
43160;SDS011;40968;52.342;5.528;2022-12-18T07:19:49;34.25;;;12.45;;
43160;SDS011;40968;52.342;5.528;2022-12-18T07:22:15;47.30;;;14.05;;
43160;SDS011;40968;52.342;5.528;2022-12-18T07:24:43;39.25;;;13.77;;
43160;SDS011;40968;52.342;5.528;2022-12-18T07:27:10;40.67;;;13.60;;
43160;SDS011;40968;52.342;5.528;2022-12-18T07:29:36;42.72;;;13.70;;
43160;SDS011;40968;52.342;5.528;2022-12-18T07:32:03;40.22;;;12.68;;
43160;SDS011;40968;52.342;5.528;2022-12-18T07:34:32;42.30;;;13.68;;
43160;SDS011;40968;52.342;5.528;2022-12-18T07:36:58;52.88;;;15.25;;
43160;SDS011;40968;52.342;5.528;2022-12-18T07:39:25;41.30;;;13.02;;
43160;SDS011;40968;52.342;5.528;2022-12-18T07:41:53;46.63;;;14.43;;
43160;SDS011;40968;52.342;5.528;2022-12-18T07:44:33;46.75;;;14.52;;
43160;SDS011;40968;52.342;5.528;2022-12-18T07:47:00;35.67;;;12.52;;
43160;SDS011;40968;52.342;5.528;2022-12-18T07:49:27;33.72;;;12.85;;
43160;SDS011;40968;52.342;5.528;2022-12-18T07:51:54;38.58;;;14.40;;
43160;SDS011;40968;52.342;5.528;2022-12-18T07:54:21;41.03;;;12.90;;
43160;SDS011;40968;52.342;5.528;2022-12-18T07:56:48;47.75;;;13.00;;
43160;SDS011;40968;52.342;5.528;2022-12-18T07:59:16;43.10;;;14.10;;
43160;SDS011;40968;52.342;5.528;2022-12-18T08:01:42;44.85;;;13.85;;
43160;SDS011;40968;52.342;5.528;2022-12-18T08:04:09;42.78;;;13.23;;
43160;SDS011;40968;52.342;5.528;2022-12-18T08:06:36;36.92;;;13.50;;
43160;SDS011;40968;52.342;5.528;2022-12-18T08:09:02;41.42;;;14.15;;
43160;SDS011;40968;52.342;5.528;2022-12-18T08:11:29;37.83;;;12.65;;
43160;SDS011;40968;52.342;5.528;2022-12-18T08:13:56;30.80;;;11.90;;
43160;SDS011;40968;52.342;5.528;2022-12-18T08:16:25;40.88;;;12.52;;
43160;SDS011;40968;52.342;5.528;2022-12-18T08:18:52;39.47;;;12.90;;
43160;SDS011;40968;52.342;5.528;2022-12-18T08:21:20;38.60;;;13.18;;
43160;SDS011;40968;52.342;5.528;2022-12-18T08:23:48;37.80;;;11.95;;
43160;SDS011;40968;52.342;5.528;2022-12-18T08:26:15;37.65;;;12.45;;
43160;SDS011;40968;52.342;5.528;2022-12-18T08:28:42;49.03;;;13.07;;
43160;SDS011;40968;52.342;5.528;2022-12-18T08:31:09;35.33;;;12.32;;
43160;SDS011;40968;52.342;5.528;2022-12-18T08:33:37;33.50;;;12.23;;
43160;SDS011;40968;52.342;5.528;2022-12-18T08:36:05;34.50;;;11.27;;
43160;SDS011;40968;52.342;5.528;2022-12-18T08:38:33;34.78;;;11.52;;
43160;SDS011;40968;52.342;5.528;2022-12-18T08:40:59;32.25;;;11.43;;
43160;SDS011;40968;52.342;5.528;2022-12-18T08:43:27;32.05;;;10.55;;
43160;SDS011;40968;52.342;5.528;2022-12-18T08:46:11;34.35;;;10.98;;
43160;SDS011;40968;52.342;5.528;2022-12-18T08:48:42;35.63;;;10.77;;
43160;SDS011;40968;52.342;5.528;2022-12-18T08:51:08;25.40;;;10.40;;
43160;SDS011;40968;52.342;5.528;2022-12-18T08:53:35;33.72;;;11.00;;
43160;SDS011;40968;52.342;5.528;2022-12-18T08:56:02;33.90;;;10.27;;
43160;SDS011;40968;52.342;5.528;2022-12-18T08:58:29;34.53;;;10.45;;
43160;SDS011;40968;52.342;5.528;2022-12-18T09:00:59;30.75;;;11.30;;
43160;SDS011;40968;52.342;5.528;2022-12-18T09:03:26;43.05;;;11.80;;
43160;SDS011;40968;52.342;5.528;2022-12-18T09:05:54;30.23;;;10.80;;
43160;SDS011;40968;52.342;5.528;2022-12-18T09:08:20;29.52;;;10.52;;
43160;SDS011;40968;52.342;5.528;2022-12-18T09:10:47;29.23;;;10.02;;
43160;SDS011;40968;52.342;5.528;2022-12-18T09:13:16;31.23;;;10.85;;
43160;SDS011;40968;52.342;5.528;2022-12-18T09:15:43;39.92;;;11.07;;
43160;SDS011;40968;52.342;5.528;2022-12-18T09:18:10;27.42;;;9.77;;
43160;SDS011;40968;52.342;5.528;2022-12-18T09:20:38;30.08;;;10.43;;
43160;SDS011;40968;52.342;5.528;2022-12-18T09:23:06;31.65;;;9.60;;
43160;SDS011;40968;52.342;5.528;2022-12-18T09:25:34;29.38;;;10.32;;
43160;SDS011;40968;52.342;5.528;2022-12-18T09:28:02;26.67;;;9.75;;
43160;SDS011;40968;52.342;5.528;2022-12-18T09:30:30;25.27;;;9.45;;
43160;SDS011;40968;52.342;5.528;2022-12-18T09:32:59;27.98;;;9.75;;
43160;SDS011;40968;52.342;5.528;2022-12-18T09:35:25;35.70;;;9.93;;
43160;SDS011;40968;52.342;5.528;2022-12-18T09:37:53;27.80;;;8.88;;
43160;SDS011;40968;52.342;5.528;2022-12-18T09:40:21;34.10;;;11.02;;
43160;SDS011;40968;52.342;5.528;2022-12-18T09:42:52;30.38;;;10.80;;
43160;SDS011;40968;52.342;5.528;2022-12-18T09:45:23;34.67;;;10.52;;
43160;SDS011;40968;52.342;5.528;2022-12-18T09:47:50;30.67;;;9.65;;
43160;SDS011;40968;52.342;5.528;2022-12-18T09:50:22;32.80;;;10.05;;
43160;SDS011;40968;52.342;5.528;2022-12-18T09:52:54;49.03;;;12.18;;
43160;SDS011;40968;52.342;5.528;2022-12-18T09:55:25;38.13;;;11.93;;
43160;SDS011;40968;52.342;5.528;2022-12-18T09:57:57;42.22;;;13.43;;
43160;SDS011;40968;52.342;5.528;2022-12-18T10:00:29;39.47;;;13.48;;
43160;SDS011;40968;52.342;5.528;2022-12-18T10:02:56;41.03;;;12.05;;
43160;SDS011;40968;52.342;5.528;2022-12-18T10:05:29;50.08;;;14.43;;
43160;SDS011;40968;52.342;5.528;2022-12-18T10:08:05;32.67;;;11.75;;
43160;SDS011;40968;52.342;5.528;2022-12-18T10:10:38;42.60;;;12.60;;
43160;SDS011;40968;52.342;5.528;2022-12-18T10:13:13;29.77;;;11.48;;
43160;SDS011;40968;52.342;5.528;2022-12-18T10:15:50;36.58;;;12.80;;
43160;SDS011;40968;52.342;5.528;2022-12-18T10:18:28;40.00;;;11.45;;
43160;SDS011;40968;52.342;5.528;2022-12-18T10:21:05;35.25;;;12.38;;
43160;SDS011;40968;52.342;5.528;2022-12-18T10:23:39;26.95;;;11.05;;
43160;SDS011;40968;52.342;5.528;2022-12-18T10:26:16;29.20;;;9.75;;
43160;SDS011;40968;52.342;5.528;2022-12-18T10:28:43;28.60;;;8.80;;
43160;SDS011;40968;52.342;5.528;2022-12-18T10:31:12;31.38;;;9.60;;
43160;SDS011;40968;52.342;5.528;2022-12-18T10:33:42;33.25;;;9.80;;
43160;SDS011;40968;52.342;5.528;2022-12-18T10:36:09;26.13;;;9.05;;
43160;SDS011;40968;52.342;5.528;2022-12-18T10:38:36;25.13;;;9.85;;
43160;SDS011;40968;52.342;5.528;2022-12-18T10:41:04;32.13;;;10.20;;
43160;SDS011;40968;52.342;5.528;2022-12-18T10:46:12;28.65;;;8.80;;
43160;SDS011;40968;52.342;5.528;2022-12-18T10:48:52;29.25;;;8.18;;
43160;SDS011;40968;52.342;5.528;2022-12-18T10:51:22;36.53;;;10.02;;
43160;SDS011;40968;52.342;5.528;2022-12-18T10:53:51;27.63;;;10.03;;
43160;SDS011;40968;52.342;5.528;2022-12-18T10:56:21;31.52;;;10.07;;
43160;SDS011;40968;52.342;5.528;2022-12-18T10:58:56;34.83;;;8.88;;
43160;SDS011;40968;52.342;5.528;2022-12-18T11:01:27;32.28;;;9.85;;
43160;SDS011;40968;52.342;5.528;2022-12-18T11:04:01;28.25;;;10.23;;
43160;SDS011;40968;52.342;5.528;2022-12-18T11:06:33;25.92;;;9.77;;
43160;SDS011;40968;52.342;5.528;2022-12-18T11:09:01;24.65;;;8.82;;
43160;SDS011;40968;52.342;5.528;2022-12-18T11:11:29;28.63;;;9.60;;
43160;SDS011;40968;52.342;5.528;2022-12-18T11:14:00;26.98;;;8.02;;
43160;SDS011;40968;52.342;5.528;2022-12-18T11:16:30;28.67;;;9.13;;
43160;SDS011;40968;52.342;5.528;2022-12-18T11:19:11;25.92;;;8.77;;
43160;SDS011;40968;52.342;5.528;2022-12-18T11:21:47;30.58;;;9.52;;
43160;SDS011;40968;52.342;5.528;2022-12-18T11:24:17;26.98;;;9.70;;
43160;SDS011;40968;52.342;5.528;2022-12-18T11:26:47;24.85;;;8.60;;
43160;SDS011;40968;52.342;5.528;2022-12-18T11:29:17;24.33;;;8.88;;
43160;SDS011;40968;52.342;5.528;2022-12-18T11:31:48;28.42;;;9.82;;
43160;SDS011;40968;52.342;5.528;2022-12-18T11:34:16;28.55;;;9.65;;
43160;SDS011;40968;52.342;5.528;2022-12-18T11:36:52;26.45;;;7.80;;
43160;SDS011;40968;52.342;5.528;2022-12-18T11:39:20;28.45;;;8.52;;
43160;SDS011;40968;52.342;5.528;2022-12-18T11:41:59;29.90;;;8.68;;
43160;SDS011;40968;52.342;5.528;2022-12-18T11:44:40;25.08;;;8.48;;
43160;SDS011;40968;52.342;5.528;2022-12-18T11:47:13;36.33;;;11.07;;
43160;SDS011;40968;52.342;5.528;2022-12-18T11:49:51;29.30;;;9.27;;
43160;SDS011;40968;52.342;5.528;2022-12-18T11:52:22;31.05;;;8.93;;
43160;SDS011;40968;52.342;5.528;2022-12-18T11:54:52;26.35;;;8.88;;
43160;SDS011;40968;52.342;5.528;2022-12-18T11:57:25;32.25;;;9.82;;
43160;SDS011;40968;52.342;5.528;2022-12-18T12:00:03;23.70;;;9.02;;
43160;SDS011;40968;52.342;5.528;2022-12-18T12:02:42;29.17;;;9.77;;
43160;SDS011;40968;52.342;5.528;2022-12-18T12:05:28;35.97;;;10.93;;
43160;SDS011;40968;52.342;5.528;2022-12-18T12:08:09;27.08;;;9.38;;
43160;SDS011;40968;52.342;5.528;2022-12-18T12:10:45;21.95;;;8.25;;
43160;SDS011;40968;52.342;5.528;2022-12-18T12:13:28;27.45;;;10.38;;
43160;SDS011;40968;52.342;5.528;2022-12-18T12:16:09;30.77;;;9.48;;
43160;SDS011;40968;52.342;5.528;2022-12-18T12:18:44;25.85;;;9.65;;
43160;SDS011;40968;52.342;5.528;2022-12-18T12:21:21;23.30;;;8.43;;
43160;SDS011;40968;52.342;5.528;2022-12-18T12:23:53;37.30;;;10.48;;
43160;SDS011;40968;52.342;5.528;2022-12-18T12:26:29;28.02;;;9.18;;
43160;SDS011;40968;52.342;5.528;2022-12-18T12:29:06;25.73;;;8.48;;
43160;SDS011;40968;52.342;5.528;2022-12-18T12:31:55;28.38;;;10.43;;
43160;SDS011;40968;52.342;5.528;2022-12-18T12:34:31;35.40;;;11.23;;
43160;SDS011;40968;52.342;5.528;2022-12-18T12:37:08;20.73;;;8.75;;
43160;SDS011;40968;52.342;5.528;2022-12-18T12:39:46;26.40;;;9.38;;
43160;SDS011;40968;52.342;5.528;2022-12-18T12:42:15;33.20;;;10.27;;
43160;SDS011;40968;52.342;5.528;2022-12-18T12:45:13;29.77;;;9.80;;
43160;SDS011;40968;52.342;5.528;2022-12-18T12:47:45;34.05;;;10.75;;
43160;SDS011;40968;52.342;5.528;2022-12-18T12:50:16;37.40;;;12.35;;
43160;SDS011;40968;52.342;5.528;2022-12-18T12:52:45;26.08;;;9.52;;
43160;SDS011;40968;52.342;5.528;2022-12-18T12:55:16;24.13;;;8.82;;
43160;SDS011;40968;52.342;5.528;2022-12-18T12:57:48;27.13;;;9.45;;
43160;SDS011;40968;52.342;5.528;2022-12-18T13:00:22;27.08;;;9.32;;
43160;SDS011;40968;52.342;5.528;2022-12-18T13:02:54;34.35;;;10.13;;
43160;SDS011;40968;52.342;5.528;2022-12-18T13:05:30;27.98;;;10.10;;
43160;SDS011;40968;52.342;5.528;2022-12-18T13:08:03;28.10;;;10.07;;
43160;SDS011;40968;52.342;5.528;2022-12-18T13:10:32;28.60;;;9.75;;
43160;SDS011;40968;52.342;5.528;2022-12-18T13:13:01;34.40;;;10.55;;
43160;SDS011;40968;52.342;5.528;2022-12-18T13:15:34;34.78;;;10.93;;
43160;SDS011;40968;52.342;5.528;2022-12-18T13:18:10;35.90;;;12.02;;
43160;SDS011;40968;52.342;5.528;2022-12-18T13:20:42;30.83;;;9.55;;
43160;SDS011;40968;52.342;5.528;2022-12-18T13:23:25;27.63;;;9.15;;
43160;SDS011;40968;52.342;5.528;2022-12-18T13:25:58;30.50;;;10.23;;
43160;SDS011;40968;52.342;5.528;2022-12-18T13:34:19;30.98;;;10.10;;
43160;SDS011;40968;52.342;5.528;2022-12-18T13:36:47;34.35;;;11.18;;
43160;SDS011;40968;52.342;5.528;2022-12-18T13:39:22;36.03;;;10.30;;
43160;SDS011;40968;52.342;5.528;2022-12-18T13:41:51;27.42;;;10.30;;
43160;SDS011;40968;52.342;5.528;2022-12-18T13:44:23;24.67;;;10.40;;
43160;SDS011;40968;52.342;5.528;2022-12-18T13:46:56;38.67;;;12.18;;
43160;SDS011;40968;52.342;5.528;2022-12-18T13:49:26;29.45;;;10.23;;
43160;SDS011;40968;52.342;5.528;2022-12-18T13:52:02;35.15;;;10.45;;
43160;SDS011;40968;52.342;5.528;2022-12-18T13:54:41;34.92;;;10.38;;
43160;SDS011;40968;52.342;5.528;2022-12-18T13:57:24;35.25;;;9.73;;
43160;SDS011;40968;52.342;5.528;2022-12-18T13:59:53;35.95;;;9.55;;
43160;SDS011;40968;52.342;5.528;2022-12-18T14:02:21;27.05;;;10.02;;
43160;SDS011;40968;52.342;5.528;2022-12-18T14:04:50;30.13;;;9.38;;
43160;SDS011;40968;52.342;5.528;2022-12-18T14:07:18;32.03;;;10.63;;
43160;SDS011;40968;52.342;5.528;2022-12-18T14:09:48;31.25;;;9.88;;
43160;SDS011;40968;52.342;5.528;2022-12-18T14:12:17;31.30;;;9.57;;
43160;SDS011;40968;52.342;5.528;2022-12-18T14:15:06;33.38;;;10.82;;
43160;SDS011;40968;52.342;5.528;2022-12-18T14:17:41;30.05;;;11.30;;
43160;SDS011;40968;52.342;5.528;2022-12-18T14:20:14;29.45;;;9.80;;
43160;SDS011;40968;52.342;5.528;2022-12-18T14:22:42;33.72;;;10.48;;
43160;SDS011;40968;52.342;5.528;2022-12-18T14:25:17;31.95;;;11.35;;
43160;SDS011;40968;52.342;5.528;2022-12-18T14:27:47;26.88;;;10.20;;
43160;SDS011;40968;52.342;5.528;2022-12-18T14:30:25;31.98;;;10.23;;
43160;SDS011;40968;52.342;5.528;2022-12-18T14:33:03;31.15;;;9.82;;
43160;SDS011;40968;52.342;5.528;2022-12-18T14:35:33;32.55;;;10.13;;
43160;SDS011;40968;52.342;5.528;2022-12-18T14:40:55;34.85;;;10.60;;
43160;SDS011;40968;52.342;5.528;2022-12-18T14:43:26;31.48;;;10.68;;
43160;SDS011;40968;52.342;5.528;2022-12-18T14:45:55;31.02;;;10.55;;
43160;SDS011;40968;52.342;5.528;2022-12-18T14:48:25;27.05;;;10.15;;
43160;SDS011;40968;52.342;5.528;2022-12-18T14:51:03;34.10;;;9.35;;